createdAt,value
2018-06-11T00:00:19.485Z,4.83
2018-06-11T00:05:23.009Z,6.57
2018-06-11T00:10:26.451Z,5.70
2018-06-11T00:15:29.410Z,5.43
2018-06-11T00:20:32.908Z,5.90
2018-06-11T00:25:36.834Z,6.80
2018-06-11T00:30:41.691Z,6.43
2018-06-11T00:35:44.847Z,5.77
2018-06-11T00:40:55.476Z,6.30
2018-06-11T00:45:58.482Z,6.20
2018-06-11T00:51:01.649Z,6.80
2018-06-11T00:56:07.263Z,6.40
2018-06-11T01:01:10.500Z,6.60
2018-06-11T01:06:13.610Z,6.77
2018-06-11T01:11:17.191Z,7.80
2018-06-11T01:16:20.473Z,7.43
2018-06-11T01:21:23.476Z,7.53
2018-06-11T01:26:27.333Z,8.13
2018-06-11T01:31:30.551Z,9.13
2018-06-11T01:36:34.031Z,8.90
2018-06-11T01:41:37.127Z,9.43
2018-06-11T01:46:40.193Z,10.50
2018-06-11T01:51:43.321Z,10.70
2018-06-11T01:56:47.092Z,9.47
2018-06-11T02:01:50.148Z,10.63
2018-06-11T02:06:53.268Z,9.63
2018-06-11T02:11:56.582Z,9.00
2018-06-11T02:16:59.729Z,10.20
2018-06-11T02:22:03.006Z,10.00
2018-06-11T02:27:06.757Z,8.60
2018-06-11T02:32:09.907Z,7.47
2018-06-11T02:37:13.482Z,6.57
2018-06-11T02:42:16.891Z,6.00
2018-06-11T02:47:19.977Z,5.77
2018-06-11T02:52:22.926Z,6.27
2018-06-11T02:57:26.357Z,5.90
2018-06-11T03:02:29.630Z,6.50
2018-06-11T03:07:32.812Z,6.17
2018-06-11T03:12:36.240Z,5.40
2018-06-11T03:17:40.388Z,4.80
2018-06-11T03:22:43.616Z,5.43
2018-06-11T03:27:47.000Z,4.90
2018-06-11T03:32:50.189Z,4.80
2018-06-11T03:37:53.328Z,4.70
2018-06-11T03:42:57.587Z,4.07
2018-06-11T03:48:00.596Z,4.40
2018-06-11T03:53:03.601Z,4.07
2018-06-11T03:58:10.373Z,4.67
2018-06-11T04:03:13.918Z,4.00
2018-06-11T04:08:17.204Z,4.10
2018-06-11T04:13:20.327Z,4.30
2018-06-11T04:18:23.379Z,4.10
2018-06-11T04:23:26.422Z,4.47
2018-06-11T04:28:36.510Z,3.97
2018-06-11T04:33:40.161Z,4.27
2018-06-11T04:38:43.045Z,5.40
2018-06-11T04:43:46.415Z,4.57
2018-06-11T04:48:49.350Z,4.50
2018-06-11T04:53:52.338Z,5.37
2018-06-11T04:58:55.948Z,4.97
2018-06-11T05:03:58.875Z,5.00
2018-06-11T05:09:03.149Z,5.20
2018-06-11T05:14:06.256Z,6.17
2018-06-11T05:19:09.714Z,5.67
2018-06-11T05:24:12.634Z,6.00
2018-06-11T05:29:15.794Z,6.47
2018-06-11T05:34:18.707Z,5.50
2018-06-11T05:39:22.096Z,5.47
2018-06-11T05:44:25.260Z,4.40
2018-06-11T05:49:28.142Z,4.50
2018-06-11T05:54:30.969Z,5.10
2018-06-11T05:59:34.252Z,4.50
2018-06-11T06:04:37.415Z,5.50
2018-06-11T06:09:40.526Z,5.23
2018-06-11T06:14:43.679Z,5.43
2018-06-11T06:19:46.668Z,4.83
2018-06-11T06:24:49.510Z,4.80
2018-06-11T06:29:52.596Z,5.37
2018-06-11T06:34:55.529Z,5.17
2018-06-11T06:39:58.730Z,5.17
2018-06-11T06:45:01.798Z,4.80
2018-06-11T06:50:04.716Z,5.10
2018-06-11T06:55:07.749Z,5.30
2018-06-11T07:00:10.895Z,4.60
2018-06-11T07:05:13.834Z,5.40
2018-06-11T07:10:16.707Z,4.83
2018-06-11T07:15:19.624Z,5.13
2018-06-11T07:20:22.499Z,4.53
2018-06-11T07:25:25.360Z,4.80
2018-06-11T07:30:28.352Z,5.00
2018-06-11T07:35:31.232Z,5.30
2018-06-11T07:40:34.103Z,5.90
2018-06-11T07:45:37.507Z,4.50
2018-06-11T07:50:41.140Z,5.07
2018-06-11T07:55:43.934Z,4.43
2018-06-11T08:00:47.510Z,4.37
2018-06-11T08:05:51.880Z,4.10
2018-06-11T08:10:54.752Z,4.77
2018-06-11T08:15:57.919Z,4.70
2018-06-11T08:21:00.817Z,5.93
2018-06-11T08:26:03.747Z,4.77
2018-06-11T08:31:07.081Z,5.50
2018-06-11T08:36:11.909Z,5.30
2018-06-11T08:41:14.868Z,4.07
2018-06-11T08:46:23.545Z,4.20
2018-06-11T08:51:26.761Z,5.73
2018-06-11T08:56:29.692Z,5.43
2018-06-11T09:01:33.459Z,5.33
2018-06-11T09:06:36.430Z,4.90
2018-06-11T09:11:39.351Z,4.80
2018-06-11T09:16:42.315Z,4.00
2018-06-11T09:21:45.180Z,4.73
2018-06-11T09:26:48.127Z,3.73
2018-06-11T09:31:51.400Z,4.70
2018-06-11T09:36:54.443Z,4.47
2018-06-11T09:41:57.313Z,4.63
2018-06-11T09:47:00.219Z,4.30
2018-06-11T09:52:03.389Z,3.90
2018-06-11T09:57:06.271Z,4.57
2018-06-11T10:02:09.777Z,4.33
2018-06-11T10:07:12.708Z,4.10
2018-06-11T10:12:15.585Z,4.57
2018-06-11T10:17:18.556Z,4.90
2018-06-11T10:22:21.785Z,5.17
2018-06-11T10:27:24.674Z,5.30
2018-06-11T10:32:27.804Z,4.70
2018-06-11T10:37:30.753Z,5.30
2018-06-11T10:42:33.671Z,5.30
2018-06-11T10:47:36.617Z,5.70
2018-06-11T10:52:39.868Z,5.33
2018-06-11T10:57:42.867Z,4.33
2018-06-11T11:02:46.583Z,5.10
2018-06-11T11:07:49.467Z,4.90
2018-06-11T11:12:52.407Z,4.57
2018-06-11T11:17:55.335Z,4.07
2018-06-11T11:22:58.651Z,5.27
2018-06-11T11:28:01.517Z,4.30
2018-06-11T11:33:05.048Z,4.27
2018-06-11T11:38:07.965Z,4.27
2018-06-11T11:43:10.887Z,4.50
2018-06-11T11:48:18.948Z,4.60
2018-06-11T11:53:22.246Z,4.17
2018-06-11T11:58:25.143Z,5.40
2018-06-11T12:03:28.910Z,5.07
2018-06-11T12:08:32.185Z,5.03
2018-06-11T12:13:35.099Z,4.70
2018-06-11T12:18:38.023Z,4.13
2018-06-11T12:23:42.013Z,4.37
2018-06-11T12:28:44.939Z,5.03
2018-06-11T12:33:47.835Z,5.00
2018-06-11T12:38:50.993Z,5.10
2018-06-11T12:43:53.896Z,4.50
2018-06-11T12:48:56.808Z,4.83
2018-06-11T12:53:59.665Z,4.87
2018-06-11T12:59:02.538Z,5.03
2018-06-11T13:04:05.484Z,4.33
2018-06-11T13:09:08.783Z,5.20
2018-06-11T13:14:11.684Z,6.30
2018-06-11T13:19:14.589Z,5.13
2018-06-11T13:24:17.505Z,5.77
2018-06-11T13:29:20.427Z,5.60
2018-06-11T13:34:23.376Z,5.00
2018-06-11T13:39:26.591Z,5.70
2018-06-11T13:44:29.548Z,5.50
2018-06-11T13:49:32.488Z,5.73
2018-06-11T13:54:35.388Z,5.50
2018-06-11T13:59:38.309Z,4.63
2018-06-11T14:04:41.531Z,4.03
2018-06-11T14:09:44.440Z,4.50
2018-06-11T14:14:47.384Z,4.10
2018-06-11T14:19:50.611Z,4.67
2018-06-11T14:24:54.399Z,5.30
2018-06-11T14:29:57.322Z,4.50
2018-06-11T14:35:00.765Z,4.37
2018-06-11T14:40:03.957Z,4.93
2018-06-11T14:45:06.917Z,4.50
2018-06-11T14:50:10.436Z,4.53
2018-06-11T14:55:13.417Z,4.77
2018-06-11T15:00:16.567Z,5.20
2018-06-11T15:05:19.829Z,4.50
2018-06-11T15:10:22.767Z,3.97
2018-06-11T15:15:25.683Z,4.40
2018-06-11T15:20:28.688Z,4.63
2018-06-11T15:25:32.377Z,4.83
2018-06-11T15:30:35.267Z,5.03
2018-06-11T15:35:38.185Z,5.00
2018-06-11T15:40:41.111Z,4.97
2018-06-11T15:45:44.244Z,4.43
2018-06-11T15:50:47.240Z,3.83
2018-06-11T15:55:50.201Z,3.60
2018-06-11T16:00:53.132Z,4.90
2018-06-11T16:05:56.580Z,5.17
2018-06-11T16:10:59.551Z,5.03
2018-06-11T16:16:02.853Z,4.37
2018-06-11T16:21:05.732Z,5.70
2018-06-11T16:26:08.766Z,5.20
2018-06-11T16:31:11.855Z,6.43
2018-06-11T16:36:15.031Z,6.60
2018-06-11T16:41:17.933Z,7.67
2018-06-11T16:46:20.880Z,8.53
2018-06-11T16:51:24.115Z,7.17
2018-06-11T16:56:26.993Z,6.30
2018-06-11T17:01:29.973Z,5.50
2018-06-11T17:06:33.249Z,5.90
2018-06-11T17:11:36.888Z,7.00
2018-06-11T17:16:40.345Z,6.27
2018-06-11T17:21:44.034Z,7.77
2018-06-11T17:26:51.331Z,6.73
2018-06-11T17:31:55.040Z,7.43
2018-06-11T17:36:58.445Z,5.90
2018-06-11T17:42:01.561Z,6.37
2018-06-11T17:47:04.926Z,6.00
2018-06-11T17:52:09.112Z,4.73
2018-06-11T17:57:12.916Z,4.90
2018-06-11T18:02:16.501Z,4.33
2018-06-11T18:07:20.267Z,4.87
2018-06-11T18:12:23.537Z,4.90
2018-06-11T18:17:26.818Z,4.90
2018-06-11T18:22:30.119Z,5.50
2018-06-11T18:27:33.758Z,3.23
2018-06-11T18:32:40.425Z,3.77
2018-06-11T18:37:44.476Z,3.73
2018-06-11T18:42:47.815Z,3.70
2018-06-11T18:47:51.197Z,3.27
2018-06-11T18:52:54.561Z,3.60
2018-06-11T18:57:59.238Z,3.00
2018-06-11T19:03:02.524Z,3.63
2018-06-11T19:08:06.113Z,2.80
2018-06-11T19:13:09.664Z,3.50
2018-06-11T19:18:13.467Z,3.70
2018-06-11T19:23:16.756Z,3.93
2018-06-11T19:28:20.264Z,3.30
2018-06-11T19:33:23.541Z,2.90
2018-06-11T19:38:26.847Z,3.00
2018-06-11T19:43:30.148Z,3.47
2018-06-11T19:48:33.075Z,4.10
2018-06-11T19:53:36.147Z,3.63
2018-06-11T19:58:39.375Z,3.93
2018-06-11T20:03:42.589Z,3.67
2018-06-11T20:08:45.976Z,4.60
2018-06-11T20:13:48.990Z,3.90
2018-06-11T20:18:52.276Z,3.60
2018-06-11T20:23:55.523Z,4.03
2018-06-11T20:28:58.558Z,4.80
2018-06-11T20:34:01.830Z,3.70
2018-06-11T20:39:06.868Z,3.57
2018-06-11T20:44:09.832Z,3.83
2018-06-11T20:49:12.736Z,3.97
2018-06-11T20:54:15.650Z,4.50
2018-06-11T20:59:18.572Z,4.37
2018-06-11T21:04:21.748Z,3.23
2018-06-11T21:09:25.033Z,4.40
2018-06-11T21:14:28.025Z,3.90
2018-06-11T21:19:30.919Z,3.07
2018-06-11T21:24:33.968Z,3.40
2018-06-11T21:29:36.980Z,2.97
2018-06-11T21:34:40.166Z,3.00
2018-06-11T21:39:43.140Z,2.63
2018-06-11T21:44:46.186Z,3.70
2018-06-11T21:49:49.062Z,3.20
2018-06-11T21:54:52.225Z,3.13
2018-06-11T21:59:55.083Z,2.83
2018-06-11T22:04:58.239Z,2.87
2018-06-11T22:10:02.024Z,3.90
2018-06-11T22:15:05.527Z,4.43
2018-06-11T22:20:08.616Z,3.83
2018-06-11T22:25:12.064Z,3.77
2018-06-11T22:30:15.159Z,3.53
2018-06-11T22:35:18.452Z,3.23
2018-06-11T22:40:21.640Z,3.53
2018-06-11T22:45:25.096Z,4.00
2018-06-11T22:50:27.988Z,4.43
2018-06-11T22:55:31.276Z,3.03
2018-06-11T23:00:34.469Z,3.20
2018-06-11T23:05:37.399Z,5.33
2018-06-11T23:10:41.337Z,4.23
2018-06-11T23:15:44.424Z,5.07
2018-06-11T23:20:47.780Z,4.83
2018-06-11T23:25:51.068Z,3.83
2018-06-11T23:30:54.270Z,3.67
2018-06-11T23:35:57.140Z,3.47
2018-06-11T23:41:00.321Z,3.00
2018-06-11T23:46:03.331Z,3.53
2018-06-11T23:51:06.500Z,3.77
2018-06-11T23:56:09.857Z,3.30
